createdAt,value
2022-09-25T00:00:23.450Z,31.34
2022-09-25T00:01:23.469Z,31.53
2022-09-25T00:02:23.577Z,31.92
2022-09-25T00:03:23.449Z,31.73
2022-09-25T00:04:23.449Z,31.73
2022-09-25T00:05:23.450Z,31.82
2022-09-25T00:06:23.472Z,31.63
2022-09-25T00:07:23.447Z,31.73
2022-09-25T00:08:23.450Z,31.82
2022-09-25T00:09:23.452Z,31.82
2022-09-25T00:10:23.449Z,31.73
2022-09-25T00:11:23.450Z,31.73
2022-09-25T00:12:23.449Z,31.73
2022-09-25T00:13:23.449Z,31.63
2022-09-25T00:14:23.449Z,31.73
2022-09-25T00:15:23.448Z,31.63
2022-09-25T00:16:23.602Z,31.63
2022-09-25T00:17:23.451Z,31.63
2022-09-25T00:18:23.452Z,31.63
2022-09-25T00:19:23.448Z,31.73
2022-09-25T00:20:23.449Z,31.53
2022-09-25T00:21:23.447Z,31.63
2022-09-25T00:22:23.477Z,31.63
2022-09-25T00:23:23.448Z,31.34
2022-09-25T00:24:23.450Z,31.44
2022-09-25T00:25:23.449Z,31.34
2022-09-25T00:26:23.450Z,31.34
2022-09-25T00:27:23.448Z,31.63
2022-09-25T00:28:23.452Z,31.34
2022-09-25T00:29:23.451Z,31.44
2022-09-25T00:30:23.455Z,31.53
2022-09-25T00:31:23.513Z,31.44
2022-09-25T00:32:23.451Z,31.44
2022-09-25T00:33:23.450Z,31.44
2022-09-25T00:34:23.452Z,31.44
2022-09-25T00:35:23.450Z,31.53
2022-09-25T00:36:23.452Z,31.44
2022-09-25T00:37:23.602Z,31.53
2022-09-25T00:38:23.473Z,31.44
2022-09-25T00:39:23.449Z,31.44
2022-09-25T00:40:23.521Z,31.53
2022-09-25T00:41:23.449Z,31.44
2022-09-25T00:42:23.452Z,31.53
2022-09-25T00:43:23.451Z,31.63
2022-09-25T00:44:23.452Z,31.44
2022-09-25T00:45:23.450Z,31.34
2022-09-25T00:46:23.530Z,31.44
2022-09-25T00:47:23.448Z,31.53
2022-09-25T00:48:23.451Z,31.53
2022-09-25T00:49:23.450Z,31.53
2022-09-25T00:50:23.452Z,31.53
2022-09-25T00:51:23.450Z,31.34
2022-09-25T00:52:23.452Z,31.53
2022-09-25T00:53:23.451Z,31.44
2022-09-25T00:54:23.472Z,31.24
2022-09-25T00:55:23.452Z,31.53
2022-09-25T00:56:23.451Z,31.53
2022-09-25T00:57:23.449Z,31.34
2022-09-25T00:58:23.451Z,31.34
2022-09-25T00:59:23.450Z,31.24
2022-09-25T01:00:23.451Z,31.44
2022-09-25T01:01:23.525Z,31.34
2022-09-25T01:02:23.564Z,31.44
2022-09-25T01:03:23.451Z,31.34
2022-09-25T01:04:23.453Z,31.53
2022-09-25T01:05:23.455Z,31.53
2022-09-25T01:06:23.450Z,31.44
2022-09-25T01:07:23.451Z,31.44
2022-09-25T01:08:23.457Z,31.44
2022-09-25T01:09:23.450Z,31.34
2022-09-25T01:10:23.478Z,31.24
2022-09-25T01:11:23.454Z,31.24
2022-09-25T01:12:23.452Z,31.44
2022-09-25T01:13:23.450Z,31.44
2022-09-25T01:14:23.451Z,31.34
2022-09-25T01:15:23.451Z,31.24
2022-09-25T01:16:23.546Z,31.44
2022-09-25T01:17:23.454Z,31.15
2022-09-25T01:18:23.450Z,31.24
2022-09-25T01:19:23.451Z,31.15
2022-09-25T01:20:23.452Z,31.44
2022-09-25T01:21:23.453Z,31.24
2022-09-25T01:22:23.452Z,31.24
2022-09-25T01:23:23.451Z,31.34
2022-09-25T01:24:23.452Z,31.24
2022-09-25T01:25:23.451Z,31.34
2022-09-25T01:26:23.477Z,31.34
2022-09-25T01:27:23.453Z,31.34
2022-09-25T01:28:23.454Z,31.34
2022-09-25T01:29:23.453Z,31.34
2022-09-25T01:30:23.452Z,31.34
2022-09-25T01:31:23.481Z,31.24
2022-09-25T01:32:23.454Z,31.15
2022-09-25T01:33:23.452Z,31.44
2022-09-25T01:34:23.453Z,31.34
2022-09-25T01:35:23.451Z,31.15
2022-09-25T01:36:23.453Z,31.34
2022-09-25T01:37:23.452Z,31.34
2022-09-25T01:38:23.454Z,31.34
2022-09-25T01:39:23.450Z,31.34
2022-09-25T01:40:23.537Z,31.26
2022-09-25T01:41:23.452Z,31.24
2022-09-25T01:42:23.477Z,31.24
2022-09-25T01:43:23.453Z,31.44
2022-09-25T01:44:23.456Z,31.44
2022-09-25T01:45:23.453Z,30.85
2022-09-25T01:46:23.546Z,31.24
2022-09-25T01:47:23.453Z,31.24
2022-09-25T01:48:23.454Z,31.24
2022-09-25T01:49:23.454Z,31.24
2022-09-25T01:50:23.453Z,31.34
2022-09-25T01:51:23.451Z,31.24
2022-09-25T01:52:23.453Z,31.15
2022-09-25T01:53:23.456Z,31.24
2022-09-25T01:54:23.453Z,31.24
2022-09-25T01:55:23.455Z,31.15
2022-09-25T01:56:23.452Z,31.24
2022-09-25T01:57:23.454Z,31.24
2022-09-25T01:58:23.479Z,31.24
2022-09-25T01:59:23.454Z,31.15
2022-09-25T02:00:23.454Z,31.24
2022-09-25T02:01:23.510Z,31.15
2022-09-25T02:02:23.489Z,31.05
2022-09-25T02:03:23.455Z,31.15
2022-09-25T02:04:23.455Z,31.24
2022-09-25T02:05:23.454Z,31.05
2022-09-25T02:06:23.454Z,31.24
2022-09-25T02:07:23.454Z,31.15
2022-09-25T02:08:23.456Z,31.15
2022-09-25T02:09:23.454Z,31.05
2022-09-25T02:10:23.453Z,31.05
2022-09-25T02:11:23.452Z,31.15
2022-09-25T02:12:23.454Z,31.05
2022-09-25T02:13:23.455Z,31.24
2022-09-25T02:14:23.476Z,31.15
2022-09-25T02:15:23.455Z,31.05
2022-09-25T02:16:23.552Z,31.24
2022-09-25T02:17:23.452Z,31.24
2022-09-25T02:18:23.455Z,31.24
2022-09-25T02:19:23.454Z,31.15
2022-09-25T02:20:23.461Z,31.24
2022-09-25T02:21:23.453Z,31.15
2022-09-25T02:22:23.470Z,31.05
2022-09-25T02:23:23.453Z,31.24
2022-09-25T02:24:23.456Z,31.24
2022-09-25T02:25:23.456Z,31.05
2022-09-25T02:26:23.454Z,31.24
2022-09-25T02:27:23.452Z,31.24
2022-09-25T02:28:23.460Z,31.15
2022-09-25T02:29:23.455Z,30.95
2022-09-25T02:30:23.567Z,31.05
2022-09-25T02:31:23.454Z,31.05
2022-09-25T02:32:23.465Z,31.15
2022-09-25T02:33:23.454Z,31.05
2022-09-25T02:34:23.456Z,31.15
2022-09-25T02:35:23.455Z,31.24
2022-09-25T02:36:23.457Z,31.05
2022-09-25T02:37:23.455Z,31.24
2022-09-25T02:38:23.456Z,31.24
2022-09-25T02:39:23.455Z,31.15
2022-09-25T02:40:23.483Z,31.05
2022-09-25T02:41:23.456Z,30.95
2022-09-25T02:42:23.454Z,31.05
2022-09-25T02:43:23.454Z,31.15
2022-09-25T02:44:23.456Z,31.15
2022-09-25T02:45:23.457Z,31.05
2022-09-25T02:46:23.603Z,31.15
2022-09-25T02:47:23.455Z,31.15
2022-09-25T02:48:23.456Z,31.24
2022-09-25T02:49:23.457Z,31.15
2022-09-25T02:50:23.456Z,31.15
2022-09-25T02:51:23.455Z,31.05
2022-09-25T02:52:23.456Z,31.05
2022-09-25T02:53:23.454Z,31.15
2022-09-25T02:54:23.455Z,31.05
2022-09-25T02:55:23.457Z,31.24
2022-09-25T02:56:23.456Z,31.24
2022-09-25T02:57:23.456Z,31.05
2022-09-25T02:58:23.456Z,31.15
2022-09-25T02:59:23.456Z,31.24
2022-09-25T03:00:23.487Z,31.05
2022-09-25T03:01:23.538Z,31.15
2022-09-25T03:02:23.537Z,31.24
2022-09-25T03:03:23.454Z,31.05
2022-09-25T03:04:23.456Z,31.05
2022-09-25T03:05:23.456Z,31.15
2022-09-25T03:06:23.455Z,31.05
2022-09-25T03:07:23.456Z,31.05
2022-09-25T03:08:23.456Z,31.05
2022-09-25T03:09:23.455Z,30.95
2022-09-25T03:10:23.462Z,31.15
2022-09-25T03:11:23.456Z,31.05
2022-09-25T03:12:23.458Z,31.15
2022-09-25T03:13:23.458Z,30.95
2022-09-25T03:14:23.456Z,31.05
2022-09-25T03:15:23.454Z,31.05
2022-09-25T03:16:23.498Z,31.05
2022-09-25T03:17:23.462Z,30.95
2022-09-25T03:18:23.482Z,31.15
2022-09-25T03:19:23.457Z,31.24
2022-09-25T03:20:23.456Z,31.24
2022-09-25T03:21:23.457Z,31.15
2022-09-25T03:22:23.458Z,31.05
2022-09-25T03:23:23.456Z,31.24
2022-09-25T03:24:23.457Z,31.05
2022-09-25T03:25:23.456Z,31.15
2022-09-25T03:26:23.456Z,31.15
2022-09-25T03:27:23.456Z,31.15
2022-09-25T03:28:23.456Z,31.05
2022-09-25T03:29:23.458Z,31.05
2022-09-25T03:30:23.464Z,31.15
2022-09-25T03:31:23.616Z,31.05
2022-09-25T03:32:23.458Z,31.05
2022-09-25T03:33:23.459Z,31.05
2022-09-25T03:34:23.478Z,31.05
2022-09-25T03:35:23.455Z,31.24
2022-09-25T03:36:23.459Z,31.24
2022-09-25T03:37:23.457Z,31.05
2022-09-25T03:38:23.457Z,31.05
2022-09-25T03:39:23.459Z,31.05
2022-09-25T03:40:23.520Z,31.05
2022-09-25T03:41:23.458Z,31.05
2022-09-25T03:42:23.459Z,31.05
2022-09-25T03:43:23.458Z,31.05
2022-09-25T03:44:23.459Z,31.15
2022-09-25T03:45:23.458Z,31.05
2022-09-25T03:46:23.508Z,31.15
2022-09-25T03:47:23.458Z,31.15
2022-09-25T03:48:23.459Z,31.15
2022-09-25T03:49:23.458Z,31.15
2022-09-25T03:50:23.566Z,31.24
2022-09-25T03:51:23.467Z,31.05
2022-09-25T03:52:23.461Z,31.15
2022-09-25T03:53:23.458Z,31.15
2022-09-25T03:54:23.458Z,31.05
2022-09-25T03:55:23.457Z,31.15
2022-09-25T03:56:23.460Z,31.05
2022-09-25T03:57:23.459Z,31.15
2022-09-25T03:58:23.460Z,31.05
2022-09-25T03:59:23.456Z,31.15
2022-09-25T04:00:23.459Z,31.15
2022-09-25T04:01:23.536Z,31.15
2022-09-25T04:02:23.526Z,31.15
2022-09-25T04:03:23.460Z,31.15
2022-09-25T04:04:23.459Z,31.15
2022-09-25T04:05:23.459Z,31.15
2022-09-25T04:06:23.481Z,31.05
2022-09-25T04:07:23.459Z,31.15
2022-09-25T04:08:23.458Z,31.05
2022-09-25T04:09:23.461Z,31.15
2022-09-25T04:10:23.458Z,31.15
2022-09-25T04:11:23.462Z,31.15
2022-09-25T04:12:23.457Z,31.15
2022-09-25T04:13:23.460Z,31.15
2022-09-25T04:14:23.457Z,31.15
2022-09-25T04:15:23.458Z,31.05
2022-09-25T04:16:23.582Z,31.24
2022-09-25T04:17:23.460Z,31.15
2022-09-25T04:18:23.458Z,31.15
2022-09-25T04:19:23.461Z,31.05
2022-09-25T04:20:23.460Z,31.05
2022-09-25T04:21:23.464Z,31.05
2022-09-25T04:22:23.481Z,31.24
2022-09-25T04:23:23.459Z,31.05
2022-09-25T04:24:23.465Z,31.05
2022-09-25T04:25:24.582Z,31.24
2022-09-25T04:26:23.469Z,31.15
2022-09-25T04:27:23.459Z,31.15
2022-09-25T04:28:23.469Z,31.05
2022-09-25T04:29:23.460Z,31.05
2022-09-25T04:30:23.457Z,31.34
2022-09-25T04:31:23.513Z,31.34
2022-09-25T04:32:23.458Z,31.24
2022-09-25T04:33:23.461Z,31.34
2022-09-25T04:34:23.459Z,31.24
2022-09-25T04:35:23.460Z,31.24
2022-09-25T04:36:23.465Z,31.15
2022-09-25T04:37:23.560Z,31.24
2022-09-25T04:38:23.481Z,31.24
2022-09-25T04:39:23.462Z,31.34
2022-09-25T04:40:23.620Z,31.24
2022-09-25T04:41:23.462Z,31.34
2022-09-25T04:42:23.458Z,31.24
2022-09-25T04:43:23.460Z,31.34
2022-09-25T04:44:23.459Z,31.24
2022-09-25T04:45:23.462Z,31.24
2022-09-25T04:46:23.491Z,31.24
2022-09-25T04:47:23.459Z,31.34
2022-09-25T04:48:23.459Z,31.05
2022-09-25T04:49:23.461Z,31.15
2022-09-25T04:50:23.459Z,31.05
2022-09-25T04:51:23.466Z,31.15
2022-09-25T04:52:23.464Z,31.05
2022-09-25T04:53:23.460Z,31.05
2022-09-25T04:54:23.481Z,31.05
2022-09-25T04:55:23.461Z,31.15
2022-09-25T04:56:23.460Z,31.15
2022-09-25T04:57:53.502Z,31.24
2022-09-25T04:58:23.458Z,31.24
2022-09-25T04:59:23.460Z,31.05
2022-09-25T05:00:23.461Z,31.24
2022-09-25T05:01:23.497Z,31.15
2022-09-25T05:02:23.662Z,31.15
2022-09-25T05:03:23.594Z,31.15
2022-09-25T05:04:23.460Z,31.05
2022-09-25T05:05:23.462Z,31.24
2022-09-25T05:06:23.483Z,31.05
2022-09-25T05:07:23.460Z,31.24
2022-09-25T05:08:23.461Z,31.15
2022-09-25T05:09:23.464Z,31.05
2022-09-25T05:10:23.482Z,31.15
2022-09-25T05:11:23.461Z,31.05
2022-09-25T05:12:23.463Z,31.15
2022-09-25T05:13:23.462Z,31.24
2022-09-25T05:14:23.459Z,31.34
2022-09-25T05:15:23.463Z,31.24
2022-09-25T05:16:23.574Z,31.15
2022-09-25T05:17:23.462Z,31.24
2022-09-25T05:18:23.466Z,31.24
2022-09-25T05:19:23.461Z,31.15
2022-09-25T05:20:23.464Z,31.24
2022-09-25T05:21:23.462Z,31.34
2022-09-25T05:22:23.460Z,31.24
2022-09-25T05:23:23.462Z,31.24
2022-09-25T05:24:23.460Z,31.24
2022-09-25T05:25:23.461Z,31.24
2022-09-25T05:26:23.569Z,31.24
2022-09-25T05:27:23.463Z,31.15
2022-09-25T05:28:23.613Z,31.24
2022-09-25T05:29:23.462Z,31.24
2022-09-25T05:30:23.460Z,31.34
2022-09-25T05:31:23.488Z,30.95
2022-09-25T05:32:23.464Z,31.15
2022-09-25T05:33:23.462Z,31.34
2022-09-25T05:34:23.461Z,31.24
2022-09-25T05:35:23.461Z,31.05
2022-09-25T05:36:23.461Z,31.24
2022-09-25T05:37:23.462Z,31.24
2022-09-25T05:38:23.460Z,31.34
2022-09-25T05:39:23.465Z,31.24
2022-09-25T05:40:23.507Z,31.24
2022-09-25T05:41:23.463Z,31.15
2022-09-25T05:42:23.484Z,31.15
2022-09-25T05:43:23.462Z,31.05
2022-09-25T05:44:23.462Z,31.24
2022-09-25T05:45:23.462Z,31.15
2022-09-25T05:46:23.557Z,31.15
2022-09-25T05:47:23.462Z,31.24
2022-09-25T05:48:23.462Z,31.15
2022-09-25T05:49:23.463Z,31.15
2022-09-25T05:50:23.461Z,31.15
2022-09-25T05:51:23.462Z,31.15
2022-09-25T05:52:23.463Z,31.15
2022-09-25T05:53:23.464Z,31.24
2022-09-25T05:54:23.463Z,31.24
2022-09-25T05:55:23.462Z,31.15
2022-09-25T05:56:23.461Z,31.15
2022-09-25T05:57:23.463Z,31.15
2022-09-25T05:58:23.485Z,31.24
2022-09-25T05:59:23.463Z,31.05
2022-09-25T06:00:23.462Z,31.24
2022-09-25T06:01:23.512Z,31.15
2022-09-25T06:02:23.461Z,31.24
2022-09-25T06:03:23.591Z,31.24
2022-09-25T06:04:23.461Z,31.24
2022-09-25T06:05:23.466Z,31.24
2022-09-25T06:06:27.286Z,31.24
2022-09-25T06:07:23.462Z,31.24
2022-09-25T06:08:23.461Z,31.24
2022-09-25T06:09:23.464Z,31.24
2022-09-25T06:10:23.462Z,31.34
2022-09-25T06:11:23.465Z,31.24
2022-09-25T06:12:23.462Z,31.15
2022-09-25T06:13:23.463Z,31.24
2022-09-25T06:14:23.568Z,31.24
2022-09-25T06:15:23.464Z,31.24
2022-09-25T06:16:23.550Z,31.24
2022-09-25T06:17:23.462Z,31.15
2022-09-25T06:18:23.462Z,31.34
2022-09-25T06:19:23.471Z,31.24
2022-09-25T06:20:23.462Z,31.24
2022-09-25T06:21:23.466Z,31.34
2022-09-25T06:22:23.463Z,31.24
2022-09-25T06:23:23.463Z,31.24
2022-09-25T06:24:23.462Z,31.34
2022-09-25T06:25:23.479Z,31.24
2022-09-25T06:26:23.463Z,31.34
2022-09-25T06:27:23.463Z,31.05
2022-09-25T06:28:23.462Z,31.34
2022-09-25T06:29:23.464Z,31.34
2022-09-25T06:30:23.488Z,31.34
2022-09-25T06:31:23.584Z,31.34
2022-09-25T06:32:23.463Z,31.24
2022-09-25T06:33:23.466Z,31.34
2022-09-25T06:34:23.462Z,31.34
2022-09-25T06:35:23.462Z,31.24
2022-09-25T06:36:23.463Z,31.24
2022-09-25T06:37:23.718Z,31.15
2022-09-25T06:38:23.461Z,31.24
2022-09-25T06:39:23.464Z,31.15
2022-09-25T06:40:23.577Z,31.24
2022-09-25T06:41:23.467Z,31.24
2022-09-25T06:42:23.462Z,31.24
2022-09-25T06:43:23.464Z,31.15
2022-09-25T06:44:23.462Z,31.15
2022-09-25T06:45:23.466Z,31.24
2022-09-25T06:46:23.536Z,31.05
2022-09-25T06:47:26.708Z,31.05
2022-09-25T06:48:23.466Z,31.05
2022-09-25T06:49:23.463Z,31.24
2022-09-25T06:50:23.463Z,31.05
2022-09-25T06:51:23.464Z,31.24
2022-09-25T06:52:23.463Z,31.24
2022-09-25T06:53:23.471Z,31.05
2022-09-25T06:54:23.465Z,31.15
2022-09-25T06:55:23.464Z,31.24
2022-09-25T06:56:23.464Z,31.05
2022-09-25T06:57:23.464Z,31.15
2022-09-25T06:58:23.463Z,31.24
2022-09-25T06:59:23.464Z,31.24
2022-09-25T07:00:23.462Z,31.15
2022-09-25T07:01:23.502Z,31.15
2022-09-25T07:02:23.657Z,31.15
2022-09-25T07:03:23.464Z,31.15
2022-09-25T07:04:23.464Z,31.24
2022-09-25T07:05:23.465Z,31.24
2022-09-25T07:06:23.463Z,31.24
2022-09-25T07:07:23.464Z,31.24
2022-09-25T07:08:23.464Z,31.24
2022-09-25T07:09:23.465Z,31.24
2022-09-25T07:10:23.462Z,31.15
2022-09-25T07:11:23.472Z,31.05
2022-09-25T07:12:23.463Z,31.24
2022-09-25T07:13:23.470Z,31.34
2022-09-25T07:14:23.463Z,31.34
2022-09-25T07:15:23.463Z,31.15
2022-09-25T07:16:23.591Z,31.24
2022-09-25T07:17:23.464Z,31.34
2022-09-25T07:18:23.487Z,31.24
2022-09-25T07:19:27.587Z,31.24
2022-09-25T07:20:23.463Z,31.24
2022-09-25T07:21:23.464Z,31.24
2022-09-25T07:22:23.462Z,31.24
2022-09-25T07:23:23.464Z,31.34
2022-09-25T07:24:23.469Z,31.24
2022-09-25T07:25:23.466Z,31.34
2022-09-25T07:26:23.465Z,31.15
2022-09-25T07:27:23.464Z,31.15
2022-09-25T07:28:23.464Z,31.24
2022-09-25T07:29:23.465Z,31.34
2022-09-25T07:30:23.528Z,31.34
2022-09-25T07:31:23.495Z,31.15
2022-09-25T07:32:23.463Z,31.24
2022-09-25T07:33:23.466Z,31.24
2022-09-25T07:34:23.494Z,31.34
2022-09-25T07:35:23.465Z,31.24
2022-09-25T07:36:23.469Z,31.24
2022-09-25T07:37:23.465Z,31.24
2022-09-25T07:38:23.466Z,31.34
2022-09-25T07:39:23.467Z,31.15
2022-09-25T07:40:23.711Z,31.24
2022-09-25T07:41:23.467Z,31.44
2022-09-25T07:42:23.463Z,31.44
2022-09-25T07:43:23.465Z,31.44
2022-09-25T07:44:28.908Z,30.95
2022-09-25T07:45:23.466Z,30.85
2022-09-25T07:46:23.499Z,31.44
2022-09-25T07:47:23.464Z,31.34
2022-09-25T07:48:23.463Z,31.24
2022-09-25T07:49:23.466Z,31.15
2022-09-25T07:50:23.487Z,31.44
2022-09-25T07:51:23.466Z,31.24
2022-09-25T07:52:23.466Z,31.34
2022-09-25T07:53:23.465Z,31.34
2022-09-25T07:54:23.464Z,31.34
2022-09-25T07:55:23.465Z,31.34
2022-09-25T07:56:23.465Z,31.44
2022-09-25T07:57:23.468Z,31.15
2022-09-25T07:58:23.463Z,31.24
2022-09-25T07:59:23.465Z,31.34
2022-09-25T08:00:23.465Z,31.44
2022-09-25T08:01:23.527Z,31.34
2022-09-25T08:02:23.581Z,31.24
2022-09-25T08:03:23.465Z,31.34
2022-09-25T08:04:23.466Z,31.34
2022-09-25T08:05:23.470Z,31.34
2022-09-25T08:06:23.571Z,31.34
2022-09-25T08:07:23.466Z,31.34
2022-09-25T08:08:23.464Z,31.34
2022-09-25T08:09:23.465Z,31.15
2022-09-25T08:10:23.473Z,31.15
2022-09-25T08:11:23.470Z,31.34
2022-09-25T08:12:23.469Z,31.34
2022-09-25T08:13:23.467Z,31.34
2022-09-25T08:14:26.798Z,31.24
2022-09-25T08:15:23.466Z,31.24
2022-09-25T08:16:23.498Z,31.34
2022-09-25T08:17:23.466Z,31.24
2022-09-25T08:18:23.465Z,31.44
2022-09-25T08:19:23.467Z,31.24
2022-09-25T08:20:23.465Z,31.24
2022-09-25T08:21:23.467Z,31.34
2022-09-25T08:22:23.573Z,31.24
2022-09-25T08:23:23.473Z,31.34
2022-09-25T08:24:23.467Z,31.24
2022-09-25T08:25:23.472Z,31.34
2022-09-25T08:26:23.470Z,31.24
2022-09-25T08:27:23.467Z,31.34
2022-09-25T08:28:23.468Z,31.34
2022-09-25T08:29:23.465Z,31.34
2022-09-25T08:30:23.465Z,31.34
2022-09-25T08:31:23.551Z,31.24
2022-09-25T08:32:23.468Z,31.24
2022-09-25T08:33:23.466Z,31.24
2022-09-25T08:34:42.038Z,31.34
2022-09-25T08:35:23.464Z,31.34
2022-09-25T08:36:23.468Z,31.24
2022-09-25T08:37:23.466Z,31.24
2022-09-25T08:38:23.496Z,31.34
2022-09-25T08:39:23.466Z,31.24
2022-09-25T08:40:23.502Z,31.24
2022-09-25T08:41:23.472Z,31.24
2022-09-25T08:42:23.467Z,31.24
2022-09-25T08:43:23.466Z,31.53
2022-09-25T08:44:23.467Z,31.34
2022-09-25T08:45:23.465Z,31.24
2022-09-25T08:46:23.595Z,31.24
2022-09-25T08:47:23.467Z,31.24
2022-09-25T08:48:23.466Z,31.24
2022-09-25T08:49:23.465Z,31.34
2022-09-25T08:50:23.466Z,31.24
2022-09-25T08:51:23.466Z,31.44
2022-09-25T08:52:23.467Z,31.34
2022-09-25T08:53:23.536Z,31.05
2022-09-25T08:54:23.492Z,31.34
2022-09-25T08:55:23.466Z,31.05
2022-09-25T08:56:23.484Z,31.05
2022-09-25T08:57:23.466Z,31.05
2022-09-25T08:58:23.467Z,31.24
2022-09-25T08:59:23.468Z,31.24
2022-09-25T09:00:23.466Z,31.34
2022-09-25T09:01:23.501Z,31.53
2022-09-25T09:02:23.522Z,31.24
2022-09-25T09:03:23.467Z,31.24
2022-09-25T09:04:23.471Z,31.63
2022-09-25T09:05:23.466Z,31.34
2022-09-25T09:06:23.470Z,31.15
2022-09-25T09:07:27.812Z,31.24
2022-09-25T09:08:23.471Z,31.15
2022-09-25T09:09:23.467Z,31.44
2022-09-25T09:10:23.490Z,31.05
2022-09-25T09:11:23.467Z,31.24
2022-09-25T09:12:23.467Z,31.24
2022-09-25T09:13:23.466Z,31.24
2022-09-25T09:14:23.467Z,31.53
2022-09-25T09:15:23.560Z,31.24
2022-09-25T09:16:23.469Z,31.24
2022-09-25T09:17:23.466Z,31.24
2022-09-25T09:18:23.466Z,31.05
2022-09-25T09:19:23.467Z,31.15
2022-09-25T09:20:23.470Z,31.24
2022-09-25T09:21:23.485Z,31.34
2022-09-25T09:22:23.470Z,31.34
2022-09-25T09:23:23.467Z,31.34
2022-09-25T09:24:23.468Z,31.44
2022-09-25T09:25:23.476Z,31.44
2022-09-25T09:26:23.489Z,31.44
2022-09-25T09:27:23.466Z,31.44
2022-09-25T09:28:23.470Z,31.34
2022-09-25T09:29:23.467Z,31.24
2022-09-25T09:30:23.468Z,31.34
2022-09-25T09:31:23.530Z,31.15
2022-09-25T09:32:23.478Z,31.34
2022-09-25T09:33:23.467Z,31.34
2022-09-25T09:34:32.067Z,31.44
2022-09-25T09:35:23.468Z,31.34
2022-09-25T09:36:23.469Z,31.34
2022-09-25T09:37:23.467Z,31.24
2022-09-25T09:38:23.474Z,31.34
2022-09-25T09:39:23.468Z,31.34
2022-09-25T09:40:23.575Z,31.34
2022-09-25T09:41:23.468Z,31.24
2022-09-25T09:42:23.533Z,31.24
2022-09-25T09:43:23.466Z,31.24
2022-09-25T09:44:23.467Z,31.34
2022-09-25T09:45:23.473Z,31.24
2022-09-25T09:46:23.510Z,31.34
2022-09-25T09:47:23.468Z,31.34
2022-09-25T09:48:23.469Z,31.24
2022-09-25T09:49:23.469Z,31.44
2022-09-25T09:50:23.468Z,31.34
2022-09-25T09:51:23.468Z,31.44
2022-09-25T09:52:23.469Z,31.44
2022-09-25T09:53:23.473Z,31.44
2022-09-25T09:54:23.470Z,31.53
2022-09-25T09:55:23.467Z,31.44
2022-09-25T09:56:23.471Z,31.53
2022-09-25T09:57:23.468Z,31.53
2022-09-25T09:58:23.503Z,31.44
2022-09-25T09:59:23.467Z,31.34
2022-09-25T10:00:23.469Z,31.34
2022-09-25T10:01:44.138Z,31.44
2022-09-25T10:02:23.577Z,31.53
2022-09-25T10:03:23.670Z,31.53
2022-09-25T10:04:23.468Z,31.34
2022-09-25T10:05:23.477Z,31.34
2022-09-25T10:06:23.468Z,31.53
2022-09-25T10:07:23.468Z,31.44
2022-09-25T10:08:23.470Z,31.24
2022-09-25T10:09:23.470Z,31.53
2022-09-25T10:10:23.470Z,31.53
2022-09-25T10:11:23.467Z,31.34
2022-09-25T10:12:23.471Z,31.24
2022-09-25T10:13:23.470Z,31.44
2022-09-25T10:14:23.574Z,31.53
2022-09-25T10:15:23.467Z,31.34
2022-09-25T10:16:23.468Z,31.34
2022-09-25T10:17:23.484Z,31.44
2022-09-25T10:18:23.483Z,31.53
2022-09-25T10:19:23.469Z,31.44
2022-09-25T10:20:23.469Z,31.53
2022-09-25T10:21:23.469Z,31.53
2022-09-25T10:22:23.469Z,31.53
2022-09-25T10:23:23.469Z,31.44
2022-09-25T10:24:23.470Z,31.44
2022-09-25T10:25:23.471Z,31.53
2022-09-25T10:26:23.470Z,31.53
2022-09-25T10:27:23.472Z,31.44
2022-09-25T10:28:23.475Z,31.53
2022-09-25T10:29:23.470Z,31.44
2022-09-25T10:30:23.580Z,31.53
2022-09-25T10:31:23.499Z,31.53
2022-09-25T10:32:23.472Z,31.24
2022-09-25T10:33:23.470Z,31.53
2022-09-25T10:34:23.470Z,31.53
2022-09-25T10:35:23.469Z,31.44
2022-09-25T10:36:23.470Z,31.44
2022-09-25T10:37:23.469Z,31.44
2022-09-25T10:38:23.469Z,31.34
2022-09-25T10:39:42.959Z,31.34
2022-09-25T10:40:23.538Z,31.44
2022-09-25T10:41:23.469Z,31.34
2022-09-25T10:42:23.470Z,31.34
2022-09-25T10:43:23.472Z,31.63
2022-09-25T10:44:23.471Z,31.63
2022-09-25T10:45:23.472Z,31.63
2022-09-25T10:46:23.508Z,31.73
2022-09-25T10:47:23.470Z,31.73
2022-09-25T10:48:23.470Z,31.63
2022-09-25T10:49:23.471Z,31.63
2022-09-25T10:50:23.472Z,31.63
2022-09-25T10:51:23.474Z,31.63
2022-09-25T10:52:23.474Z,31.63
2022-09-25T10:53:23.470Z,31.73
2022-09-25T10:54:23.471Z,31.73
2022-09-25T10:55:23.472Z,31.73
2022-09-25T10:56:23.472Z,31.73
2022-09-25T10:57:23.470Z,31.53
2022-09-25T10:58:23.471Z,31.53
2022-09-25T10:59:23.772Z,31.53
2022-09-25T11:00:23.473Z,31.44
2022-09-25T11:01:23.561Z,31.63
2022-09-25T11:02:23.642Z,31.53
2022-09-25T11:03:23.469Z,31.44
2022-09-25T11:04:23.472Z,31.73
2022-09-25T11:05:23.471Z,31.63
2022-09-25T11:06:23.479Z,31.82
2022-09-25T11:07:23.471Z,31.73
2022-09-25T11:08:23.471Z,31.82
2022-09-25T11:09:23.472Z,31.82
2022-09-25T11:10:23.472Z,31.73
2022-09-25T11:11:23.470Z,31.63
2022-09-25T11:12:23.490Z,31.73
2022-09-25T11:13:23.474Z,31.92
2022-09-25T11:14:23.474Z,31.53
2022-09-25T11:15:23.471Z,31.92
2022-09-25T11:16:23.510Z,32.02
2022-09-25T11:17:23.472Z,32.02
2022-09-25T11:18:23.494Z,31.92
2022-09-25T11:19:23.479Z,31.92
2022-09-25T11:20:23.472Z,32.21
2022-09-25T11:21:23.471Z,32.12
2022-09-25T11:22:23.473Z,32.21
2022-09-25T11:23:23.471Z,32.31
2022-09-25T11:24:23.473Z,32.21
2022-09-25T11:25:23.471Z,32.21
2022-09-25T11:26:23.473Z,32.31
2022-09-25T11:27:23.470Z,32.31
2022-09-25T11:28:23.473Z,32.21
2022-09-25T11:29:23.471Z,32.21
2022-09-25T11:30:23.471Z,32.12
2022-09-25T11:31:23.470Z,32.12
2022-09-25T11:32:23.471Z,32.12
2022-09-25T11:33:23.473Z,32.21
2022-09-25T11:34:23.494Z,32.02
2022-09-25T11:35:23.471Z,32.12
2022-09-25T11:36:23.472Z,32.21
2022-09-25T11:37:23.624Z,32.12
2022-09-25T11:38:23.474Z,32.12
2022-09-25T11:39:23.471Z,32.12
2022-09-25T11:40:23.516Z,32.02
2022-09-25T11:41:23.472Z,32.21
2022-09-25T11:42:23.473Z,32.31
2022-09-25T11:43:23.471Z,32.41
2022-09-25T11:44:23.473Z,32.31
2022-09-25T11:45:23.472Z,32.31
2022-09-25T11:46:23.525Z,32.31
2022-09-25T11:47:23.472Z,32.41
2022-09-25T11:48:23.485Z,32.41
2022-09-25T11:49:23.480Z,32.41
2022-09-25T11:50:23.579Z,32.31
2022-09-25T11:51:23.472Z,32.41
2022-09-25T11:52:23.478Z,32.41
2022-09-25T11:53:23.472Z,32.31
2022-09-25T11:54:33.671Z,32.31
2022-09-25T11:55:23.472Z,32.31
2022-09-25T11:56:23.474Z,32.31
2022-09-25T11:57:23.473Z,32.21
2022-09-25T11:58:23.473Z,32.31
2022-09-25T11:59:23.473Z,32.31
2022-09-25T12:00:23.475Z,32.41
2022-09-25T12:01:23.556Z,32.21
2022-09-25T12:02:23.525Z,32.21
2022-09-25T12:03:23.472Z,32.41
2022-09-25T12:04:23.473Z,32.02
2022-09-25T12:05:23.473Z,32.31
2022-09-25T12:06:23.495Z,32.02
2022-09-25T12:07:23.473Z,32.02
2022-09-25T12:08:23.475Z,32.21
2022-09-25T12:09:23.473Z,32.12
2022-09-25T12:10:23.483Z,32.12
2022-09-25T12:11:23.472Z,31.92
2022-09-25T12:12:23.474Z,32.12
2022-09-25T12:13:23.473Z,31.92
2022-09-25T12:14:23.478Z,32.02
2022-09-25T12:15:23.473Z,31.92
2022-09-25T12:16:23.509Z,32.12
2022-09-25T12:17:23.476Z,32.02
2022-09-25T12:18:23.474Z,32.12
2022-09-25T12:19:23.473Z,31.92
2022-09-25T12:20:23.586Z,32.02
2022-09-25T12:21:23.474Z,32.02
2022-09-25T12:22:23.495Z,32.12
2022-09-25T12:23:23.473Z,32.02
2022-09-25T12:24:23.474Z,31.92
2022-09-25T12:25:23.473Z,32.12
2022-09-25T12:26:23.475Z,32.12
2022-09-25T12:27:23.473Z,32.12
2022-09-25T12:28:23.475Z,32.31
2022-09-25T12:29:23.474Z,32.12
2022-09-25T12:30:23.481Z,32.21
2022-09-25T12:31:23.547Z,32.02
2022-09-25T12:32:23.475Z,32.02
2022-09-25T12:33:23.473Z,32.21
2022-09-25T12:34:23.474Z,32.31
2022-09-25T12:35:23.474Z,32.21
2022-09-25T12:36:23.475Z,32.12
2022-09-25T12:37:27.353Z,32.12
2022-09-25T12:38:23.495Z,32.41
2022-09-25T12:39:23.475Z,32.21
2022-09-25T12:40:23.572Z,32.21
2022-09-25T12:41:23.475Z,32.31
2022-09-25T12:42:23.476Z,32.12
2022-09-25T12:43:23.475Z,32.21
2022-09-25T12:44:27.317Z,32.21
2022-09-25T12:45:23.477Z,32.31
2022-09-25T12:46:23.536Z,32.50
2022-09-25T12:47:23.475Z,32.21
2022-09-25T12:48:23.474Z,32.50
2022-09-25T12:49:23.478Z,32.41
2022-09-25T12:50:23.474Z,32.12
2022-09-25T12:51:23.477Z,32.31
2022-09-25T12:52:23.475Z,32.31